createdAt,value
2019-04-11T00:03:06.569Z,6.40
2019-04-11T00:08:15.077Z,6.17
2019-04-11T00:13:26.915Z,6.37
2019-04-11T00:18:32.404Z,6.42
2019-04-11T00:23:39.213Z,6.63
2019-04-11T00:28:47.979Z,6.46
2019-04-11T00:33:56.342Z,6.75
2019-04-11T00:39:03.512Z,6.52
2019-04-11T00:44:11.731Z,6.20
2019-04-11T00:49:20.133Z,6.24
2019-04-11T00:54:29.027Z,5.91
2019-04-11T00:59:36.344Z,5.91
2019-04-11T01:04:45.342Z,5.71
2019-04-11T01:09:52.710Z,5.33
2019-04-11T01:15:00.125Z,5.48
2019-04-11T01:20:08.562Z,5.42
2019-04-11T01:25:17.594Z,4.97
2019-04-11T01:30:27.004Z,5.18
2019-04-11T01:35:34.290Z,5.02
2019-04-11T01:40:42.265Z,5.03
2019-04-11T01:45:51.774Z,5.05
2019-04-11T01:50:59.074Z,5.18
2019-04-11T01:56:07.148Z,5.25
2019-04-11T02:01:14.698Z,4.79
2019-04-11T02:06:21.733Z,5.12
2019-04-11T02:11:30.129Z,4.90
2019-04-11T02:16:38.512Z,4.89
2019-04-11T02:21:46.985Z,4.99
2019-04-11T02:26:56.615Z,4.88
2019-04-11T02:32:05.449Z,4.90
2019-04-11T02:37:13.438Z,4.88
2019-04-11T02:42:21.391Z,5.04
2019-04-11T02:47:32.392Z,5.28
2019-04-11T02:52:37.619Z,5.35
2019-04-11T02:57:43.753Z,4.99
2019-04-11T03:02:53.200Z,5.15
2019-04-11T03:08:01.048Z,5.08
2019-04-11T03:13:08.425Z,4.94
2019-04-11T03:18:39.182Z,5.24
2019-04-11T03:23:24.955Z,4.95
2019-04-11T03:28:32.995Z,5.10
2019-04-11T03:34:40.183Z,4.82
2019-04-11T03:44:03.944Z,5.10
2019-04-11T03:49:16.919Z,5.75
2019-04-11T03:54:11.592Z,5.49
2019-04-11T03:59:19.545Z,5.31
2019-04-11T04:04:26.762Z,5.43
2019-04-11T04:09:35.296Z,5.40
2019-04-11T04:14:44.601Z,5.87
2019-04-11T04:19:49.948Z,5.50
2019-04-11T04:24:58.741Z,5.32
2019-04-11T04:30:05.912Z,5.71
2019-04-11T04:35:15.600Z,5.47
2019-04-11T04:40:35.538Z,5.47
2019-04-11T04:45:30.243Z,5.79
2019-04-11T04:50:38.757Z,5.91
2019-04-11T04:55:45.731Z,6.23
2019-04-11T05:00:54.241Z,5.83
2019-04-11T05:06:03.198Z,5.87
2019-04-11T05:11:08.818Z,6.21
2019-04-11T05:16:18.070Z,6.16
2019-04-11T05:21:25.511Z,6.66
2019-04-11T05:26:35.428Z,6.69
2019-04-11T05:31:42.761Z,6.32
2019-04-11T05:36:49.878Z,6.26
2019-04-11T05:41:58.793Z,6.46
2019-04-11T05:47:07.035Z,7.04
2019-04-11T05:52:15.709Z,6.83
2019-04-11T05:57:24.421Z,7.45
2019-04-11T06:02:31.067Z,7.22
2019-04-11T06:07:42.462Z,6.87
2019-04-11T06:12:54.834Z,7.16
2019-04-11T06:17:53.110Z,7.25
2019-04-11T06:23:03.376Z,7.31
2019-04-11T06:28:10.149Z,7.37
2019-04-11T06:33:18.573Z,7.26
2019-04-11T06:38:26.872Z,6.78
2019-04-11T06:43:36.242Z,6.19
2019-04-11T06:48:43.037Z,6.21
2019-04-11T06:53:51.302Z,6.21
2019-04-11T06:58:59.769Z,8.30
2019-04-11T07:04:09.167Z,6.21
2019-04-11T07:09:16.717Z,5.75
2019-04-11T07:14:23.517Z,5.89
2019-04-11T07:19:31.525Z,5.44
2019-04-11T07:24:39.848Z,6.30
2019-04-11T07:29:48.542Z,5.60
2019-04-11T07:34:56.438Z,6.50
2019-04-11T07:40:03.156Z,5.80
2019-04-11T07:45:12.481Z,6.08
2019-04-11T07:50:19.883Z,5.95
2019-04-11T07:55:27.943Z,6.30
2019-04-11T08:00:41.732Z,6.90
2019-04-11T08:05:42.492Z,8.08
2019-04-11T08:10:50.746Z,7.38
2019-04-11T08:15:59.101Z,7.09
2019-04-11T08:21:08.017Z,6.79
2019-04-11T08:26:15.085Z,7.01
2019-04-11T08:31:24.385Z,6.57
2019-04-11T08:36:31.655Z,6.32
2019-04-11T08:41:39.921Z,5.71
2019-04-11T08:46:46.865Z,6.22
2019-04-11T08:51:54.361Z,6.88
2019-04-11T08:57:03.340Z,6.58
2019-04-11T09:02:10.726Z,7.19
2019-04-11T09:07:19.167Z,6.05
2019-04-11T09:12:26.816Z,5.57
2019-04-11T09:17:34.528Z,5.49
2019-04-11T09:22:44.896Z,6.09
2019-04-11T09:27:53.964Z,6.14
2019-04-11T09:33:00.316Z,6.10
2019-04-11T09:38:08.487Z,5.77
2019-04-11T09:43:15.938Z,5.50
2019-04-11T09:48:29.337Z,6.24
2019-04-11T09:53:28.177Z,5.36
2019-04-11T09:58:35.740Z,5.64
2019-04-11T10:03:43.691Z,5.24
2019-04-11T10:08:53.199Z,5.84
2019-04-11T10:14:01.814Z,5.11
2019-04-11T10:19:11.701Z,4.71
2019-04-11T10:24:20.859Z,7.04
2019-04-11T10:29:29.987Z,5.96
2019-04-11T10:34:35.409Z,5.57
2019-04-11T10:39:43.841Z,4.75
2019-04-11T10:44:50.941Z,4.96
2019-04-11T10:49:59.467Z,4.98
2019-04-11T10:55:07.965Z,5.53
2019-04-11T11:00:17.348Z,5.00
2019-04-11T11:05:26.281Z,4.98
2019-04-11T11:10:33.249Z,5.16
2019-04-11T11:15:41.978Z,4.33
2019-04-11T11:20:45.662Z,4.72
2019-04-11T11:25:49.808Z,5.88
2019-04-11T11:30:56.372Z,4.86
2019-04-11T11:36:07.577Z,4.84
2019-04-11T11:41:12.498Z,4.17
2019-04-11T11:46:25.518Z,4.27
2019-04-11T11:51:30.062Z,4.95
2019-04-11T11:56:38.079Z,5.06
2019-04-11T12:01:49.000Z,5.48
2019-04-11T12:06:58.075Z,4.71
2019-04-11T12:12:02.231Z,4.28
2019-04-11T12:17:10.147Z,4.47
2019-04-11T12:22:18.121Z,4.41
2019-04-11T12:27:26.856Z,4.44
2019-04-11T12:32:34.710Z,4.37
2019-04-11T12:37:43.451Z,5.40
2019-04-11T12:42:50.343Z,4.38
2019-04-11T12:47:58.930Z,4.18
2019-04-11T12:53:07.794Z,4.03
2019-04-11T12:58:16.453Z,4.55
2019-04-11T13:03:25.061Z,4.07
2019-04-11T13:08:33.777Z,3.42
2019-04-11T13:13:42.059Z,3.79
2019-04-11T13:18:50.753Z,4.61
2019-04-11T13:23:59.030Z,5.53
2019-04-11T13:29:06.392Z,4.73
2019-04-11T13:34:15.180Z,4.23
2019-04-11T13:39:24.083Z,4.24
2019-04-11T13:44:32.678Z,4.01
2019-04-11T13:49:41.189Z,4.70
2019-04-11T13:54:55.717Z,6.54
2019-04-11T13:59:54.130Z,4.70
2019-04-11T14:05:02.401Z,3.92
2019-04-11T14:10:13.354Z,4.64
2019-04-11T14:15:11.525Z,4.65
2019-04-11T14:20:29.081Z,4.22
2019-04-11T14:25:27.949Z,4.13
2019-04-11T14:30:36.394Z,4.64
2019-04-11T14:35:44.751Z,4.47
2019-04-11T14:41:01.688Z,4.54
2019-04-11T14:46:01.696Z,5.12
2019-04-11T14:51:10.214Z,4.27
2019-04-11T14:56:21.811Z,5.92
2019-04-11T15:01:28.095Z,4.08
2019-04-11T15:06:34.200Z,4.29
2019-04-11T15:11:43.347Z,6.54
2019-04-11T15:16:51.691Z,7.47
2019-04-11T15:22:00.302Z,4.56
2019-04-11T15:27:09.325Z,4.71
2019-04-11T15:32:17.841Z,5.23
2019-04-11T15:37:28.126Z,5.25
2019-04-11T15:42:34.305Z,4.92
2019-04-11T15:47:42.638Z,5.00
2019-04-11T15:52:50.897Z,5.47
2019-04-11T15:57:59.326Z,4.65
2019-04-11T16:03:08.691Z,4.57
2019-04-11T16:08:17.071Z,5.36
2019-04-11T16:13:25.511Z,6.03
2019-04-11T16:18:34.218Z,4.86
2019-04-11T16:23:42.861Z,5.23
2019-04-11T16:28:51.234Z,5.08
2019-04-11T16:33:59.717Z,4.65
2019-04-11T16:39:08.332Z,6.32
2019-04-11T16:44:18.369Z,6.42
2019-04-11T16:49:29.089Z,6.82
2019-04-11T16:54:27.866Z,6.86
2019-04-11T16:59:36.361Z,8.39
2019-04-11T17:04:45.396Z,9.74
2019-04-11T17:09:56.439Z,8.46
2019-04-11T17:15:02.239Z,6.54
2019-04-11T17:20:11.318Z,5.81
2019-04-11T17:25:19.851Z,6.52
2019-04-11T17:30:27.553Z,7.62
2019-04-11T17:35:38.507Z,8.75
2019-04-11T17:40:39.399Z,6.49
2019-04-11T17:45:45.452Z,8.86
2019-04-11T17:50:54.114Z,7.91
2019-04-11T17:56:02.917Z,8.90
2019-04-11T18:01:19.226Z,9.27
2019-04-11T18:06:17.768Z,7.11
2019-04-11T18:11:26.222Z,6.82
2019-04-11T18:16:33.218Z,6.77
2019-04-11T18:21:41.838Z,8.71
2019-04-11T18:26:51.970Z,8.88
2019-04-11T18:31:58.125Z,9.03
2019-04-11T18:37:06.879Z,7.84
2019-04-11T18:42:15.401Z,7.88
2019-04-11T18:47:23.938Z,7.00
2019-04-11T18:52:32.607Z,5.81
2019-04-11T18:57:41.129Z,6.18
2019-04-11T19:02:49.500Z,5.84
2019-04-11T19:07:59.154Z,9.43
2019-04-11T19:13:07.926Z,9.89
2019-04-11T19:18:17.207Z,7.50
2019-04-11T19:23:25.782Z,9.57
2019-04-11T19:28:34.394Z,6.06
2019-04-11T19:33:42.977Z,7.80
2019-04-11T19:38:51.691Z,7.53
2019-04-11T19:44:01.055Z,7.75
2019-04-11T19:49:09.647Z,7.17
2019-04-11T19:54:18.432Z,7.12
2019-04-11T19:59:27.268Z,6.87
2019-04-11T20:04:36.237Z,6.91
2019-04-11T20:09:44.729Z,6.83
2019-04-11T20:14:53.126Z,6.64
2019-04-11T20:20:06.312Z,6.28
2019-04-11T20:25:09.702Z,6.65
2019-04-11T20:30:20.057Z,6.75
2019-04-11T20:35:28.462Z,6.64
2019-04-11T20:40:26.681Z,6.76
2019-04-11T20:45:36.048Z,6.62
2019-04-11T20:50:45.596Z,7.59
2019-04-11T20:55:53.865Z,7.62
2019-04-11T21:01:02.150Z,7.65
2019-04-11T21:06:10.494Z,7.15
2019-04-11T21:11:18.865Z,6.91
2019-04-11T21:16:26.999Z,6.97
2019-04-11T21:21:35.337Z,6.79
2019-04-11T21:26:44.214Z,6.15
2019-04-11T21:31:53.252Z,6.84
2019-04-11T21:37:02.575Z,6.08
2019-04-11T21:42:09.217Z,6.71
2019-04-11T21:47:17.505Z,6.39
2019-04-11T21:52:26.015Z,6.81
2019-04-11T21:57:34.373Z,5.84
2019-04-11T22:02:43.386Z,6.80
2019-04-11T22:07:51.709Z,6.47
2019-04-11T22:13:00.072Z,6.72
2019-04-11T22:18:08.529Z,6.65
2019-04-11T22:23:17.107Z,6.54
2019-04-11T22:28:25.593Z,6.55
2019-04-11T22:33:33.889Z,6.30
2019-04-11T22:38:42.130Z,6.86
2019-04-11T22:43:50.440Z,7.06
2019-04-11T22:48:58.905Z,6.58
2019-04-11T22:54:07.198Z,7.12
2019-04-11T22:59:15.905Z,6.80
2019-04-11T23:04:24.114Z,6.76
2019-04-11T23:09:32.387Z,6.91
2019-04-11T23:14:40.841Z,6.83
2019-04-11T23:19:49.028Z,7.15
2019-04-11T23:24:57.391Z,7.10
2019-04-11T23:30:05.654Z,7.25
2019-04-11T23:35:13.958Z,7.46
2019-04-11T23:40:22.549Z,6.82
2019-04-11T23:45:30.861Z,7.14
2019-04-11T23:50:39.093Z,7.48
2019-04-11T23:55:47.421Z,7.39
